sensor_id;sensor_type;location;lat;lon;timestamp;temperature;humidity
40660;DHT22;26753;45.544;9.232;2024-03-08T00:00:09;13.10;99.90
40660;DHT22;26753;45.544;9.232;2024-03-08T00:05:04;15.50;99.90
40660;DHT22;26753;45.544;9.232;2024-03-08T00:09:56;12.70;99.90
40660;DHT22;26753;45.544;9.232;2024-03-08T00:12:22;12.60;99.90
40660;DHT22;26753;45.544;9.232;2024-03-08T00:14:48;14.00;99.90
40660;DHT22;26753;45.544;9.232;2024-03-08T00:17:13;12.70;99.90
40660;DHT22;26753;45.544;9.232;2024-03-08T00:19:41;14.80;99.90
40660;DHT22;26753;45.544;9.232;2024-03-08T00:22:06;12.80;99.90
40660;DHT22;26753;45.544;9.232;2024-03-08T00:24:33;12.00;99.90
40660;DHT22;26753;45.544;9.232;2024-03-08T00:26:59;15.10;99.90
40660;DHT22;26753;45.544;9.232;2024-03-08T00:29:24;12.60;99.90
40660;DHT22;26753;45.544;9.232;2024-03-08T00:31:50;13.70;99.90
40660;DHT22;26753;45.544;9.232;2024-03-08T00:34:16;14.10;99.90
40660;DHT22;26753;45.544;9.232;2024-03-08T00:36:41;15.20;99.90
40660;DHT22;26753;45.544;9.232;2024-03-08T00:39:07;14.70;99.90
40660;DHT22;26753;45.544;9.232;2024-03-08T00:41:33;13.00;99.90
40660;DHT22;26753;45.544;9.232;2024-03-08T00:43:58;13.40;99.90
40660;DHT22;26753;45.544;9.232;2024-03-08T00:46:24;13.80;99.90
40660;DHT22;26753;45.544;9.232;2024-03-08T00:48:50;13.20;99.90
40660;DHT22;26753;45.544;9.232;2024-03-08T00:51:16;13.90;99.90
40660;DHT22;26753;45.544;9.232;2024-03-08T00:53:42;12.50;99.90
40660;DHT22;26753;45.544;9.232;2024-03-08T00:56:08;13.80;99.90
40660;DHT22;26753;45.544;9.232;2024-03-08T00:58:38;13.50;99.90
40660;DHT22;26753;45.544;9.232;2024-03-08T01:01:04;15.20;99.90
40660;DHT22;26753;45.544;9.232;2024-03-08T01:03:30;13.70;99.90
40660;DHT22;26753;45.544;9.232;2024-03-08T01:06:00;14.00;99.90
40660;DHT22;26753;45.544;9.232;2024-03-08T01:08:28;13.20;99.90
40660;DHT22;26753;45.544;9.232;2024-03-08T01:10:54;12.20;99.90
40660;DHT22;26753;45.544;9.232;2024-03-08T01:13:19;13.40;99.90
40660;DHT22;26753;45.544;9.232;2024-03-08T01:15:46;11.80;99.90
40660;DHT22;26753;45.544;9.232;2024-03-08T01:20:38;14.20;99.90
40660;DHT22;26753;45.544;9.232;2024-03-08T01:23:05;12.20;99.90
40660;DHT22;26753;45.544;9.232;2024-03-08T01:25:33;13.40;99.90
40660;DHT22;26753;45.544;9.232;2024-03-08T01:27:58;11.50;99.90
40660;DHT22;26753;45.544;9.232;2024-03-08T01:32:50;14.00;99.90
40660;DHT22;26753;45.544;9.232;2024-03-08T01:35:16;11.70;99.90
40660;DHT22;26753;45.544;9.232;2024-03-08T01:37:42;13.40;99.90
40660;DHT22;26753;45.544;9.232;2024-03-08T01:40:07;10.80;99.90
40660;DHT22;26753;45.544;9.232;2024-03-08T01:42:34;12.60;99.90
40660;DHT22;26753;45.544;9.232;2024-03-08T01:45:07;9.70;99.90
40660;DHT22;26753;45.544;9.232;2024-03-08T01:47:32;12.60;99.90
40660;DHT22;26753;45.544;9.232;2024-03-08T01:49:59;13.00;99.90
40660;DHT22;26753;45.544;9.232;2024-03-08T01:52:28;11.90;99.90
40660;DHT22;26753;45.544;9.232;2024-03-08T01:54:54;12.50;99.90
40660;DHT22;26753;45.544;9.232;2024-03-08T01:57:21;14.00;99.90
40660;DHT22;26753;45.544;9.232;2024-03-08T01:59:46;12.50;99.90
40660;DHT22;26753;45.544;9.232;2024-03-08T02:02:14;13.10;99.90
40660;DHT22;26753;45.544;9.232;2024-03-08T02:09:34;12.70;99.90
40660;DHT22;26753;45.544;9.232;2024-03-08T02:11:59;12.00;99.90
40660;DHT22;26753;45.544;9.232;2024-03-08T02:14:25;14.60;99.90
40660;DHT22;26753;45.544;9.232;2024-03-08T02:16:51;11.00;99.90
40660;DHT22;26753;45.544;9.232;2024-03-08T02:19:17;14.30;99.90
40660;DHT22;26753;45.544;9.232;2024-03-08T02:21:43;11.50;99.90
40660;DHT22;26753;45.544;9.232;2024-03-08T02:24:09;14.20;99.90
40660;DHT22;26753;45.544;9.232;2024-03-08T02:26:35;12.20;99.90
40660;DHT22;26753;45.544;9.232;2024-03-08T02:29:01;14.20;99.90
40660;DHT22;26753;45.544;9.232;2024-03-08T02:33:53;12.80;99.90
40660;DHT22;26753;45.544;9.232;2024-03-08T02:36:19;13.70;99.90
40660;DHT22;26753;45.544;9.232;2024-03-08T02:38:45;11.00;99.90
40660;DHT22;26753;45.544;9.232;2024-03-08T02:41:11;11.00;99.90
40660;DHT22;26753;45.544;9.232;2024-03-08T02:43:36;10.60;99.90
40660;DHT22;26753;45.544;9.232;2024-03-08T02:46:02;12.40;99.90
40660;DHT22;26753;45.544;9.232;2024-03-08T02:48:28;12.60;99.90
40660;DHT22;26753;45.544;9.232;2024-03-08T02:50:53;13.90;99.90
40660;DHT22;26753;45.544;9.232;2024-03-08T02:53:19;12.80;99.90
40660;DHT22;26753;45.544;9.232;2024-03-08T02:55:45;12.60;99.90
40660;DHT22;26753;45.544;9.232;2024-03-08T02:58:10;12.60;99.90
40660;DHT22;26753;45.544;9.232;2024-03-08T03:00:37;13.00;99.90
40660;DHT22;26753;45.544;9.232;2024-03-08T03:05:30;10.90;99.90
40660;DHT22;26753;45.544;9.232;2024-03-08T03:07:56;11.30;99.90
40660;DHT22;26753;45.544;9.232;2024-03-08T03:10:23;13.00;99.90
40660;DHT22;26753;45.544;9.232;2024-03-08T03:12:49;14.00;99.90
40660;DHT22;26753;45.544;9.232;2024-03-08T03:15:15;13.20;99.90
40660;DHT22;26753;45.544;9.232;2024-03-08T03:17:50;11.00;99.90
40660;DHT22;26753;45.544;9.232;2024-03-08T03:20:17;10.40;99.90
40660;DHT22;26753;45.544;9.232;2024-03-08T03:22:49;12.40;99.90
40660;DHT22;26753;45.544;9.232;2024-03-08T03:25:21;11.50;99.90
40660;DHT22;26753;45.544;9.232;2024-03-08T03:27:52;11.60;99.90
40660;DHT22;26753;45.544;9.232;2024-03-08T03:30:18;12.20;99.90
40660;DHT22;26753;45.544;9.232;2024-03-08T03:32:47;11.50;99.90
40660;DHT22;26753;45.544;9.232;2024-03-08T03:37:43;11.80;99.90
40660;DHT22;26753;45.544;9.232;2024-03-08T03:40:12;13.00;99.90
40660;DHT22;26753;45.544;9.232;2024-03-08T03:45:08;13.80;99.90
40660;DHT22;26753;45.544;9.232;2024-03-08T03:47:35;11.40;99.90
40660;DHT22;26753;45.544;9.232;2024-03-08T03:50:01;13.10;99.90
40660;DHT22;26753;45.544;9.232;2024-03-08T03:52:28;11.00;99.90
40660;DHT22;26753;45.544;9.232;2024-03-08T03:54:54;10.70;99.90
40660;DHT22;26753;45.544;9.232;2024-03-08T03:59:48;11.90;99.90
40660;DHT22;26753;45.544;9.232;2024-03-08T04:02:14;12.60;99.90
40660;DHT22;26753;45.544;9.232;2024-03-08T04:04:40;13.20;99.90
40660;DHT22;26753;45.544;9.232;2024-03-08T04:07:06;9.90;99.90
40660;DHT22;26753;45.544;9.232;2024-03-08T04:09:31;12.50;99.90
40660;DHT22;26753;45.544;9.232;2024-03-08T04:11:57;13.70;99.90
40660;DHT22;26753;45.544;9.232;2024-03-08T04:14:23;12.20;99.90
40660;DHT22;26753;45.544;9.232;2024-03-08T04:24:07;11.70;99.90
40660;DHT22;26753;45.544;9.232;2024-03-08T04:26:34;12.20;99.90
40660;DHT22;26753;45.544;9.232;2024-03-08T04:31:26;13.20;99.90
40660;DHT22;26753;45.544;9.232;2024-03-08T04:36:18;11.90;99.90
40660;DHT22;26753;45.544;9.232;2024-03-08T04:38:45;12.50;99.90
40660;DHT22;26753;45.544;9.232;2024-03-08T04:41:11;13.30;99.90
40660;DHT22;26753;45.544;9.232;2024-03-08T04:43:37;13.50;99.90
40660;DHT22;26753;45.544;9.232;2024-03-08T04:46:02;11.20;99.90
40660;DHT22;26753;45.544;9.232;2024-03-08T04:48:29;11.00;99.90
40660;DHT22;26753;45.544;9.232;2024-03-08T04:50:54;11.30;99.90
40660;DHT22;26753;45.544;9.232;2024-03-08T04:53:21;10.80;99.90
40660;DHT22;26753;45.544;9.232;2024-03-08T04:55:47;12.10;99.90
40660;DHT22;26753;45.544;9.232;2024-03-08T04:58:12;11.70;99.90
40660;DHT22;26753;45.544;9.232;2024-03-08T05:03:04;12.20;99.90
40660;DHT22;26753;45.544;9.232;2024-03-08T05:05:30;11.60;99.90
40660;DHT22;26753;45.544;9.232;2024-03-08T05:07:56;12.00;99.90
40660;DHT22;26753;45.544;9.232;2024-03-08T05:15:14;12.30;99.90
40660;DHT22;26753;45.544;9.232;2024-03-08T05:17:40;11.90;99.90
40660;DHT22;26753;45.544;9.232;2024-03-08T05:20:06;13.40;99.90
40660;DHT22;26753;45.544;9.232;2024-03-08T05:22:34;14.30;99.90
40660;DHT22;26753;45.544;9.232;2024-03-08T05:24:59;13.40;99.90
40660;DHT22;26753;45.544;9.232;2024-03-08T05:27:26;13.20;99.90
40660;DHT22;26753;45.544;9.232;2024-03-08T05:29:51;12.60;99.90
40660;DHT22;26753;45.544;9.232;2024-03-08T05:32:17;12.90;99.90
40660;DHT22;26753;45.544;9.232;2024-03-08T05:34:43;11.90;99.90
40660;DHT22;26753;45.544;9.232;2024-03-08T05:37:09;11.10;99.90
40660;DHT22;26753;45.544;9.232;2024-03-08T05:39:36;13.10;99.90
40660;DHT22;26753;45.544;9.232;2024-03-08T05:42:02;11.90;99.90
40660;DHT22;26753;45.544;9.232;2024-03-08T05:46:54;13.50;99.90
40660;DHT22;26753;45.544;9.232;2024-03-08T05:49:21;11.40;99.90
40660;DHT22;26753;45.544;9.232;2024-03-08T05:54:13;9.80;99.90
40660;DHT22;26753;45.544;9.232;2024-03-08T05:56:39;11.60;99.90
40660;DHT22;26753;45.544;9.232;2024-03-08T06:01:35;11.20;99.90
40660;DHT22;26753;45.544;9.232;2024-03-08T06:04:02;12.10;99.90
40660;DHT22;26753;45.544;9.232;2024-03-08T06:06:29;12.30;99.90
40660;DHT22;26753;45.544;9.232;2024-03-08T06:08:55;12.30;99.90
40660;DHT22;26753;45.544;9.232;2024-03-08T06:13:48;11.40;99.90
40660;DHT22;26753;45.544;9.232;2024-03-08T06:18:41;12.40;99.90
40660;DHT22;26753;45.544;9.232;2024-03-08T06:21:08;11.40;99.90
40660;DHT22;26753;45.544;9.232;2024-03-08T06:23:41;11.00;99.90
40660;DHT22;26753;45.544;9.232;2024-03-08T06:26:10;10.20;99.90
40660;DHT22;26753;45.544;9.232;2024-03-08T06:28:35;12.20;99.90
40660;DHT22;26753;45.544;9.232;2024-03-08T06:40:50;11.60;99.90
40660;DHT22;26753;45.544;9.232;2024-03-08T06:45:46;10.90;99.90
40660;DHT22;26753;45.544;9.232;2024-03-08T06:58:03;10.30;99.90
40660;DHT22;26753;45.544;9.232;2024-03-08T07:00:28;13.00;99.90
40660;DHT22;26753;45.544;9.232;2024-03-08T07:07:52;11.20;99.90
40660;DHT22;26753;45.544;9.232;2024-03-08T07:12:44;10.80;99.90
40660;DHT22;26753;45.544;9.232;2024-03-08T07:17:39;13.30;99.90
40660;DHT22;26753;45.544;9.232;2024-03-08T07:20:06;13.30;99.90
40660;DHT22;26753;45.544;9.232;2024-03-08T07:25:08;12.50;99.90
40660;DHT22;26753;45.544;9.232;2024-03-08T07:27:55;10.70;99.90
40660;DHT22;26753;45.544;9.232;2024-03-08T07:30:25;12.20;99.90
40660;DHT22;26753;45.544;9.232;2024-03-08T07:33:09;12.20;99.90
40660;DHT22;26753;45.544;9.232;2024-03-08T07:38:09;14.70;99.90
40660;DHT22;26753;45.544;9.232;2024-03-08T07:40:39;12.60;99.90
40660;DHT22;26753;45.544;9.232;2024-03-08T07:43:09;12.00;99.90
40660;DHT22;26753;45.544;9.232;2024-03-08T07:48:03;11.80;99.90
40660;DHT22;26753;45.544;9.232;2024-03-08T07:50:28;12.30;99.90
40660;DHT22;26753;45.544;9.232;2024-03-08T07:55:20;12.40;99.90
40660;DHT22;26753;45.544;9.232;2024-03-08T07:57:49;13.10;99.90
40660;DHT22;26753;45.544;9.232;2024-03-08T08:00:15;13.90;99.90
40660;DHT22;26753;45.544;9.232;2024-03-08T08:02:46;11.70;99.90
40660;DHT22;26753;45.544;9.232;2024-03-08T08:07:39;11.00;99.90
40660;DHT22;26753;45.544;9.232;2024-03-08T08:12:32;13.20;99.90
40660;DHT22;26753;45.544;9.232;2024-03-08T08:15:00;13.60;99.90
40660;DHT22;26753;45.544;9.232;2024-03-08T08:17:25;11.50;99.90
40660;DHT22;26753;45.544;9.232;2024-03-08T08:19:51;13.10;99.90
40660;DHT22;26753;45.544;9.232;2024-03-08T08:22:17;11.10;99.90
40660;DHT22;26753;45.544;9.232;2024-03-08T08:24:43;14.10;99.90
40660;DHT22;26753;45.544;9.232;2024-03-08T08:34:30;13.40;99.90
40660;DHT22;26753;45.544;9.232;2024-03-08T08:41:51;15.60;99.90
40660;DHT22;26753;45.544;9.232;2024-03-08T08:46:43;12.50;99.90
40660;DHT22;26753;45.544;9.232;2024-03-08T08:49:08;13.60;99.90
40660;DHT22;26753;45.544;9.232;2024-03-08T08:51:40;15.70;99.90
40660;DHT22;26753;45.544;9.232;2024-03-08T08:58:58;12.30;99.90
40660;DHT22;26753;45.544;9.232;2024-03-08T09:01:24;13.90;99.90
40660;DHT22;26753;45.544;9.232;2024-03-08T09:03:49;13.00;99.90
40660;DHT22;26753;45.544;9.232;2024-03-08T09:06:16;12.10;99.90
40660;DHT22;26753;45.544;9.232;2024-03-08T09:08:42;15.30;99.90
40660;DHT22;26753;45.544;9.232;2024-03-08T09:11:09;15.20;99.90
40660;DHT22;26753;45.544;9.232;2024-03-08T09:16:04;13.20;99.90
40660;DHT22;26753;45.544;9.232;2024-03-08T09:18:31;16.00;99.90
40660;DHT22;26753;45.544;9.232;2024-03-08T09:23:26;15.10;99.90
40660;DHT22;26753;45.544;9.232;2024-03-08T09:25:56;14.30;99.90
40660;DHT22;26753;45.544;9.232;2024-03-08T09:30:49;11.70;99.90
40660;DHT22;26753;45.544;9.232;2024-03-08T09:33:15;12.80;99.90
40660;DHT22;26753;45.544;9.232;2024-03-08T09:35:47;13.20;99.90
40660;DHT22;26753;45.544;9.232;2024-03-08T09:38:14;15.80;99.90
40660;DHT22;26753;45.544;9.232;2024-03-08T09:45:40;14.30;99.90
40660;DHT22;26753;45.544;9.232;2024-03-08T09:50:43;14.80;99.90
40660;DHT22;26753;45.544;9.232;2024-03-08T09:55:38;14.00;99.90
40660;DHT22;26753;45.544;9.232;2024-03-08T09:58:08;13.80;99.90
40660;DHT22;26753;45.544;9.232;2024-03-08T10:00:47;14.60;99.90
40660;DHT22;26753;45.544;9.232;2024-03-08T10:03:13;16.00;99.90
40660;DHT22;26753;45.544;9.232;2024-03-08T10:05:41;14.20;99.90
40660;DHT22;26753;45.544;9.232;2024-03-08T10:10:37;13.20;99.90
40660;DHT22;26753;45.544;9.232;2024-03-08T10:13:09;17.00;99.90
40660;DHT22;26753;45.544;9.232;2024-03-08T10:15:36;16.10;99.90
40660;DHT22;26753;45.544;9.232;2024-03-08T10:18:02;12.70;99.90
40660;DHT22;26753;45.544;9.232;2024-03-08T10:23:02;13.00;99.90
40660;DHT22;26753;45.544;9.232;2024-03-08T10:25:34;13.40;99.90
40660;DHT22;26753;45.544;9.232;2024-03-08T10:28:02;14.70;99.90
40660;DHT22;26753;45.544;9.232;2024-03-08T10:30:29;17.00;99.90
40660;DHT22;26753;45.544;9.232;2024-03-08T10:32:55;15.90;99.90
40660;DHT22;26753;45.544;9.232;2024-03-08T10:35:22;17.30;99.90
40660;DHT22;26753;45.544;9.232;2024-03-08T10:37:49;15.60;99.90
40660;DHT22;26753;45.544;9.232;2024-03-08T10:40:24;16.20;99.90
40660;DHT22;26753;45.544;9.232;2024-03-08T10:45:38;14.60;99.90
40660;DHT22;26753;45.544;9.232;2024-03-08T10:51:04;15.50;99.90
40660;DHT22;26753;45.544;9.232;2024-03-08T10:53:30;16.50;99.90
40660;DHT22;26753;45.544;9.232;2024-03-08T10:55:56;17.10;99.90
40660;DHT22;26753;45.544;9.232;2024-03-08T10:58:25;15.50;99.90
40660;DHT22;26753;45.544;9.232;2024-03-08T11:00:53;17.80;99.90
40660;DHT22;26753;45.544;9.232;2024-03-08T11:06:06;17.00;99.90
40660;DHT22;26753;45.544;9.232;2024-03-08T11:08:33;17.10;99.90
40660;DHT22;26753;45.544;9.232;2024-03-08T11:11:01;16.80;99.90
40660;DHT22;26753;45.544;9.232;2024-03-08T11:13:34;16.90;99.90
40660;DHT22;26753;45.544;9.232;2024-03-08T11:16:01;17.20;99.90
40660;DHT22;26753;45.544;9.232;2024-03-08T11:18:33;17.30;99.90
40660;DHT22;26753;45.544;9.232;2024-03-08T11:21:02;17.40;99.90
40660;DHT22;26753;45.544;9.232;2024-03-08T11:23:31;16.90;99.90
40660;DHT22;26753;45.544;9.232;2024-03-08T11:25:56;16.90;99.90
40660;DHT22;26753;45.544;9.232;2024-03-08T11:28:25;16.40;99.90
40660;DHT22;26753;45.544;9.232;2024-03-08T11:33:31;16.40;99.90
40660;DHT22;26753;45.544;9.232;2024-03-08T11:36:12;16.10;99.90
40660;DHT22;26753;45.544;9.232;2024-03-08T11:38:42;15.40;99.90
40660;DHT22;26753;45.544;9.232;2024-03-08T11:41:09;16.20;99.90
40660;DHT22;26753;45.544;9.232;2024-03-08T11:43:40;16.00;99.90
40660;DHT22;26753;45.544;9.232;2024-03-08T11:46:15;16.60;99.90
40660;DHT22;26753;45.544;9.232;2024-03-08T11:51:14;14.60;99.90
40660;DHT22;26753;45.544;9.232;2024-03-08T11:53:41;14.40;99.90
40660;DHT22;26753;45.544;9.232;2024-03-08T11:56:07;14.10;99.90
40660;DHT22;26753;45.544;9.232;2024-03-08T11:58:33;15.60;99.90
40660;DHT22;26753;45.544;9.232;2024-03-08T12:01:09;16.90;99.90
40660;DHT22;26753;45.544;9.232;2024-03-08T12:03:41;13.40;99.90
40660;DHT22;26753;45.544;9.232;2024-03-08T12:06:12;13.60;99.90
40660;DHT22;26753;45.544;9.232;2024-03-08T12:08:39;15.20;99.90
40660;DHT22;26753;45.544;9.232;2024-03-08T12:11:04;15.30;99.90
40660;DHT22;26753;45.544;9.232;2024-03-08T12:13:32;14.80;99.90
40660;DHT22;26753;45.544;9.232;2024-03-08T12:16:02;16.20;99.90
40660;DHT22;26753;45.544;9.232;2024-03-08T12:18:35;15.60;99.90
40660;DHT22;26753;45.544;9.232;2024-03-08T12:21:08;14.10;99.90
40660;DHT22;26753;45.544;9.232;2024-03-08T12:23:34;13.80;99.90
40660;DHT22;26753;45.544;9.232;2024-03-08T12:26:16;16.70;99.90
40660;DHT22;26753;45.544;9.232;2024-03-08T12:28:43;16.00;99.90
40660;DHT22;26753;45.544;9.232;2024-03-08T12:31:11;15.50;99.90
40660;DHT22;26753;45.544;9.232;2024-03-08T12:33:50;15.80;99.90
40660;DHT22;26753;45.544;9.232;2024-03-08T12:38:46;15.50;99.90
40660;DHT22;26753;45.544;9.232;2024-03-08T12:41:16;12.70;99.90
40660;DHT22;26753;45.544;9.232;2024-03-08T12:43:43;13.00;99.90
40660;DHT22;26753;45.544;9.232;2024-03-08T12:46:14;12.70;99.90
40660;DHT22;26753;45.544;9.232;2024-03-08T12:48:40;13.70;99.90
40660;DHT22;26753;45.544;9.232;2024-03-08T12:51:09;13.60;99.90
40660;DHT22;26753;45.544;9.232;2024-03-08T12:53:35;15.80;99.90
40660;DHT22;26753;45.544;9.232;2024-03-08T12:58:27;14.60;99.90
40660;DHT22;26753;45.544;9.232;2024-03-08T13:00:53;15.60;99.90
40660;DHT22;26753;45.544;9.232;2024-03-08T13:03:18;13.60;99.90
40660;DHT22;26753;45.544;9.232;2024-03-08T13:08:11;14.00;99.90
40660;DHT22;26753;45.544;9.232;2024-03-08T13:10:40;15.20;99.90
40660;DHT22;26753;45.544;9.232;2024-03-08T13:13:11;16.30;99.90
40660;DHT22;26753;45.544;9.232;2024-03-08T13:15:42;13.90;99.90
40660;DHT22;26753;45.544;9.232;2024-03-08T13:20:35;15.90;99.90
40660;DHT22;26753;45.544;9.232;2024-03-08T13:23:04;15.40;99.90
40660;DHT22;26753;45.544;9.232;2024-03-08T13:27:57;14.50;99.90
40660;DHT22;26753;45.544;9.232;2024-03-08T13:30:25;14.80;99.90
40660;DHT22;26753;45.544;9.232;2024-03-08T13:32:55;13.80;99.90
40660;DHT22;26753;45.544;9.232;2024-03-08T13:37:51;15.50;99.90
40660;DHT22;26753;45.544;9.232;2024-03-08T13:40:17;13.80;99.90
40660;DHT22;26753;45.544;9.232;2024-03-08T13:42:46;13.60;99.90
40660;DHT22;26753;45.544;9.232;2024-03-08T13:45:12;13.90;99.90
40660;DHT22;26753;45.544;9.232;2024-03-08T13:47:41;14.00;99.90
40660;DHT22;26753;45.544;9.232;2024-03-08T13:50:08;13.80;99.90
40660;DHT22;26753;45.544;9.232;2024-03-08T13:55:05;12.00;99.90
40660;DHT22;26753;45.544;9.232;2024-03-08T13:57:32;12.10;99.90
40660;DHT22;26753;45.544;9.232;2024-03-08T13:59:58;13.20;99.90
40660;DHT22;26753;45.544;9.232;2024-03-08T14:04:54;13.50;99.90
40660;DHT22;26753;45.544;9.232;2024-03-08T14:07:23;12.90;99.90
40660;DHT22;26753;45.544;9.232;2024-03-08T14:09:51;14.60;99.90
40660;DHT22;26753;45.544;9.232;2024-03-08T14:12:18;12.10;99.90
40660;DHT22;26753;45.544;9.232;2024-03-08T14:14:44;13.80;99.90
40660;DHT22;26753;45.544;9.232;2024-03-08T14:19:37;12.40;99.90
40660;DHT22;26753;45.544;9.232;2024-03-08T14:24:31;13.90;99.90
40660;DHT22;26753;45.544;9.232;2024-03-08T14:29:25;13.90;99.90
40660;DHT22;26753;45.544;9.232;2024-03-08T14:31:55;14.20;99.90
40660;DHT22;26753;45.544;9.232;2024-03-08T14:34:27;14.80;99.90
40660;DHT22;26753;45.544;9.232;2024-03-08T14:36:55;14.10;99.90
40660;DHT22;26753;45.544;9.232;2024-03-08T14:39:21;12.90;99.90
40660;DHT22;26753;45.544;9.232;2024-03-08T14:41:50;15.40;99.90
40660;DHT22;26753;45.544;9.232;2024-03-08T14:44:19;13.90;99.90
40660;DHT22;26753;45.544;9.232;2024-03-08T14:46:45;13.20;99.90
40660;DHT22;26753;45.544;9.232;2024-03-08T14:49:11;14.60;99.90
40660;DHT22;26753;45.544;9.232;2024-03-08T14:54:03;11.90;99.90
40660;DHT22;26753;45.544;9.232;2024-03-08T14:56:33;14.80;99.90
40660;DHT22;26753;45.544;9.232;2024-03-08T15:01:27;13.60;99.90
40660;DHT22;26753;45.544;9.232;2024-03-08T15:06:21;15.00;99.90
40660;DHT22;26753;45.544;9.232;2024-03-08T15:21:14;12.90;99.90
40660;DHT22;26753;45.544;9.232;2024-03-08T15:28:42;13.30;99.90
40660;DHT22;26753;45.544;9.232;2024-03-08T15:31:10;15.40;99.90
40660;DHT22;26753;45.544;9.232;2024-03-08T15:33:39;14.60;99.90
40660;DHT22;26753;45.544;9.232;2024-03-08T15:36:16;15.00;99.90
40660;DHT22;26753;45.544;9.232;2024-03-08T15:38:43;14.20;99.90
40660;DHT22;26753;45.544;9.232;2024-03-08T15:46:10;12.70;99.90
40660;DHT22;26753;45.544;9.232;2024-03-08T15:48:38;13.30;99.90
40660;DHT22;26753;45.544;9.232;2024-03-08T15:51:06;14.80;99.90
40660;DHT22;26753;45.544;9.232;2024-03-08T15:58:25;14.20;99.90
40660;DHT22;26753;45.544;9.232;2024-03-08T16:03:17;13.60;99.90
40660;DHT22;26753;45.544;9.232;2024-03-08T16:05:43;11.80;99.90
40660;DHT22;26753;45.544;9.232;2024-03-08T16:10:44;11.70;99.90
40660;DHT22;26753;45.544;9.232;2024-03-08T16:13:12;12.60;99.90
40660;DHT22;26753;45.544;9.232;2024-03-08T16:15:38;11.60;99.90
40660;DHT22;26753;45.544;9.232;2024-03-08T16:18:04;12.90;99.90
40660;DHT22;26753;45.544;9.232;2024-03-08T16:22:59;11.20;99.90
40660;DHT22;26753;45.544;9.232;2024-03-08T16:27:50;12.50;99.90
40660;DHT22;26753;45.544;9.232;2024-03-08T16:32:43;12.40;99.90
40660;DHT22;26753;45.544;9.232;2024-03-08T16:35:10;11.00;99.90
40660;DHT22;26753;45.544;9.232;2024-03-08T16:37:37;10.30;99.90
40660;DHT22;26753;45.544;9.232;2024-03-08T16:40:04;11.90;99.90
40660;DHT22;26753;45.544;9.232;2024-03-08T16:42:30;11.90;99.90
40660;DHT22;26753;45.544;9.232;2024-03-08T16:44:56;13.40;99.90
40660;DHT22;26753;45.544;9.232;2024-03-08T16:47:22;13.30;99.90
40660;DHT22;26753;45.544;9.232;2024-03-08T16:49:49;11.10;99.90
40660;DHT22;26753;45.544;9.232;2024-03-08T16:52:15;13.10;99.90
40660;DHT22;26753;45.544;9.232;2024-03-08T16:59:39;9.90;99.90
40660;DHT22;26753;45.544;9.232;2024-03-08T17:04:36;11.10;99.90
40660;DHT22;26753;45.544;9.232;2024-03-08T17:07:03;12.30;99.90
40660;DHT22;26753;45.544;9.232;2024-03-08T17:11:55;13.20;99.90
40660;DHT22;26753;45.544;9.232;2024-03-08T17:14:20;13.70;99.90
40660;DHT22;26753;45.544;9.232;2024-03-08T17:16:46;11.70;99.90
40660;DHT22;26753;45.544;9.232;2024-03-08T17:19:12;12.10;99.90
40660;DHT22;26753;45.544;9.232;2024-03-08T17:21:38;12.20;99.90
40660;DHT22;26753;45.544;9.232;2024-03-08T17:24:07;12.70;99.90
40660;DHT22;26753;45.544;9.232;2024-03-08T17:26:36;13.50;99.90
40660;DHT22;26753;45.544;9.232;2024-03-08T17:31:28;10.60;99.90
40660;DHT22;26753;45.544;9.232;2024-03-08T17:36:23;13.00;99.90
40660;DHT22;26753;45.544;9.232;2024-03-08T17:38:50;11.00;99.90
40660;DHT22;26753;45.544;9.232;2024-03-08T17:41:16;12.70;99.90
40660;DHT22;26753;45.544;9.232;2024-03-08T17:48:41;10.90;99.90
40660;DHT22;26753;45.544;9.232;2024-03-08T17:51:06;11.90;99.90
40660;DHT22;26753;45.544;9.232;2024-03-08T17:53:33;12.40;99.90
40660;DHT22;26753;45.544;9.232;2024-03-08T17:56:00;12.20;99.90
40660;DHT22;26753;45.544;9.232;2024-03-08T18:00:52;12.10;99.90
40660;DHT22;26753;45.544;9.232;2024-03-08T18:03:19;12.10;99.90
40660;DHT22;26753;45.544;9.232;2024-03-08T18:05:45;12.60;99.90
40660;DHT22;26753;45.544;9.232;2024-03-08T18:08:11;11.40;99.90
40660;DHT22;26753;45.544;9.232;2024-03-08T18:10:37;11.20;99.90
40660;DHT22;26753;45.544;9.232;2024-03-08T18:13:04;11.60;99.90
40660;DHT22;26753;45.544;9.232;2024-03-08T18:15:42;11.10;99.90
40660;DHT22;26753;45.544;9.232;2024-03-08T18:18:09;12.30;99.90
40660;DHT22;26753;45.544;9.232;2024-03-08T18:20:36;11.20;99.90
40660;DHT22;26753;45.544;9.232;2024-03-08T18:23:28;12.50;99.90
40660;DHT22;26753;45.544;9.232;2024-03-08T18:25:54;10.50;99.90
40660;DHT22;26753;45.544;9.232;2024-03-08T18:30:46;10.30;99.90
40660;DHT22;26753;45.544;9.232;2024-03-08T18:33:14;12.20;99.90
40660;DHT22;26753;45.544;9.232;2024-03-08T18:35:41;11.80;99.90
40660;DHT22;26753;45.544;9.232;2024-03-08T18:42:59;12.60;99.90
40660;DHT22;26753;45.544;9.232;2024-03-08T18:45:28;13.40;99.90
40660;DHT22;26753;45.544;9.232;2024-03-08T18:50:25;9.80;99.90
40660;DHT22;26753;45.544;9.232;2024-03-08T18:52:52;10.40;99.90
40660;DHT22;26753;45.544;9.232;2024-03-08T18:57:50;10.60;99.90
40660;DHT22;26753;45.544;9.232;2024-03-08T19:02:52;11.10;99.90
40660;DHT22;26753;45.544;9.232;2024-03-08T19:05:19;13.30;99.90
40660;DHT22;26753;45.544;9.232;2024-03-08T19:07:47;10.80;99.90
40660;DHT22;26753;45.544;9.232;2024-03-08T19:10:14;12.80;99.90
40660;DHT22;26753;45.544;9.232;2024-03-08T19:15:10;11.50;99.90
40660;DHT22;26753;45.544;9.232;2024-03-08T19:20:06;10.90;99.90
40660;DHT22;26753;45.544;9.232;2024-03-08T19:22:57;11.60;99.90
40660;DHT22;26753;45.544;9.232;2024-03-08T19:27:57;13.90;99.90
40660;DHT22;26753;45.544;9.232;2024-03-08T19:37:51;11.20;99.90
40660;DHT22;26753;45.544;9.232;2024-03-08T19:42:51;12.90;99.90
40660;DHT22;26753;45.544;9.232;2024-03-08T19:50:14;11.30;99.90
40660;DHT22;26753;45.544;9.232;2024-03-08T20:00:03;11.90;99.90
40660;DHT22;26753;45.544;9.232;2024-03-08T20:07:22;11.40;99.90
40660;DHT22;26753;45.544;9.232;2024-03-08T20:09:52;12.10;99.90
40660;DHT22;26753;45.544;9.232;2024-03-08T20:12:18;11.10;99.90
40660;DHT22;26753;45.544;9.232;2024-03-08T20:14:45;12.00;99.90
40660;DHT22;26753;45.544;9.232;2024-03-08T20:17:10;11.20;99.90
40660;DHT22;26753;45.544;9.232;2024-03-08T20:26:56;12.10;99.90
40660;DHT22;26753;45.544;9.232;2024-03-08T20:29:24;10.40;99.90
40660;DHT22;26753;45.544;9.232;2024-03-08T20:31:49;12.00;99.90
40660;DHT22;26753;45.544;9.232;2024-03-08T20:34:17;10.70;99.90
40660;DHT22;26753;45.544;9.232;2024-03-08T20:36:43;10.90;99.90
40660;DHT22;26753;45.544;9.232;2024-03-08T20:39:09;10.80;99.90
40660;DHT22;26753;45.544;9.232;2024-03-08T20:51:22;11.70;99.90
40660;DHT22;26753;45.544;9.232;2024-03-08T20:58:40;12.80;99.90